createdAt,value
2018-01-28T00:01:36.189Z,11.77
2018-01-28T00:04:03.753Z,10.30
2018-01-28T00:06:31.903Z,11.03
2018-01-28T00:08:59.463Z,10.63
2018-01-28T00:11:26.951Z,10.83
2018-01-28T00:13:54.699Z,10.67
2018-01-28T00:16:23.331Z,9.70
2018-01-28T00:18:50.935Z,10.27
2018-01-28T00:21:19.006Z,9.30
2018-01-28T00:23:46.815Z,9.93
2018-01-28T00:26:14.698Z,10.27
2018-01-28T00:28:43.633Z,10.23
2018-01-28T00:31:11.256Z,9.73
2018-01-28T00:33:38.948Z,10.23
2018-01-28T00:36:06.706Z,10.00
2018-01-28T00:38:34.425Z,10.70
2018-01-28T00:41:02.249Z,10.30
2018-01-28T00:43:29.798Z,10.43
2018-01-28T00:45:57.834Z,10.07
2018-01-28T00:48:25.357Z,10.03
2018-01-28T00:50:53.067Z,9.70
2018-01-28T00:53:20.723Z,9.97
2018-01-28T00:55:49.421Z,10.40
2018-01-28T00:58:18.026Z,10.40
2018-01-28T01:00:45.530Z,9.67
2018-01-28T01:03:13.033Z,10.37
2018-01-28T01:05:40.727Z,9.30
2018-01-28T01:08:08.333Z,9.17
2018-01-28T01:10:36.619Z,10.63
2018-01-28T01:13:04.303Z,9.93
2018-01-28T01:15:31.974Z,9.33
2018-01-28T01:17:59.436Z,10.13
2018-01-28T01:20:27.028Z,10.07
2018-01-28T01:22:54.555Z,9.83
2018-01-28T01:25:22.059Z,9.73
2018-01-28T01:27:50.568Z,10.17
2018-01-28T01:30:18.037Z,10.07
2018-01-28T01:32:45.512Z,9.33
2018-01-28T01:35:36.637Z,10.70
2018-01-28T01:38:04.092Z,9.33
2018-01-28T01:40:31.564Z,10.13
2018-01-28T01:42:59.041Z,9.57
2018-01-28T01:45:26.536Z,9.50
2018-01-28T01:47:54.023Z,10.30
2018-01-28T01:50:21.563Z,10.63
2018-01-28T01:52:49.731Z,10.17
2018-01-28T01:55:17.247Z,9.90
2018-01-28T01:57:44.746Z,9.80
2018-01-28T02:00:12.457Z,10.30
2018-01-28T02:02:39.960Z,10.33
2018-01-28T02:05:08.588Z,10.20
2018-01-28T02:07:37.006Z,9.53
2018-01-28T02:10:05.611Z,10.27
2018-01-28T02:12:33.143Z,9.17
2018-01-28T02:15:00.734Z,9.67
2018-01-28T02:17:28.240Z,10.10
2018-01-28T02:19:55.795Z,9.40
2018-01-28T02:22:23.622Z,9.07
2018-01-28T02:24:51.302Z,9.53
2018-01-28T02:27:18.880Z,9.13
2018-01-28T02:29:47.747Z,9.00
2018-01-28T02:32:15.444Z,9.10
2018-01-28T02:34:43.944Z,8.80
2018-01-28T02:37:12.313Z,8.97
2018-01-28T02:39:40.642Z,8.93
2018-01-28T02:42:10.421Z,9.03
2018-01-28T02:44:37.950Z,8.37
2018-01-28T02:47:05.445Z,8.77
2018-01-28T02:49:32.929Z,8.67
2018-01-28T02:52:00.381Z,8.20
2018-01-28T02:54:27.871Z,9.30
2018-01-28T02:56:55.402Z,7.83
2018-01-28T02:59:22.902Z,8.97
2018-01-28T03:01:51.251Z,8.07
2018-01-28T03:04:18.718Z,8.10
2018-01-28T03:06:46.271Z,8.27
2018-01-28T03:09:13.765Z,8.03
2018-01-28T03:11:41.300Z,8.20
2018-01-28T03:14:08.853Z,7.83
2018-01-28T03:16:37.205Z,7.67
2018-01-28T03:19:04.739Z,7.70
2018-01-28T03:21:34.010Z,8.10
2018-01-28T03:24:01.481Z,7.80
2018-01-28T03:26:28.995Z,7.53
2018-01-28T03:28:56.487Z,7.23
2018-01-28T03:31:23.978Z,7.10
2018-01-28T03:33:51.529Z,7.33
2018-01-28T03:36:19.000Z,7.13
2018-01-28T03:38:46.484Z,6.83
2018-01-28T03:41:13.983Z,6.97
2018-01-28T03:43:41.484Z,7.70
2018-01-28T03:46:08.988Z,7.47
2018-01-28T03:48:36.437Z,6.70
2018-01-28T03:51:03.942Z,7.33
2018-01-28T03:53:31.410Z,7.03
2018-01-28T03:55:58.968Z,7.17
2018-01-28T03:58:26.420Z,7.63
2018-01-28T04:00:53.878Z,7.23
2018-01-28T04:03:21.490Z,7.70
2018-01-28T04:05:48.958Z,7.17
2018-01-28T04:08:17.106Z,7.10
2018-01-28T04:10:44.616Z,6.93
2018-01-28T04:13:12.095Z,7.77
2018-01-28T04:15:39.742Z,7.37
2018-01-28T04:18:07.204Z,7.10
2018-01-28T04:20:34.682Z,8.03
2018-01-28T04:23:02.185Z,7.43
2018-01-28T04:25:29.806Z,6.80
2018-01-28T04:27:57.270Z,7.40
2018-01-28T04:30:24.740Z,6.70
2018-01-28T04:32:52.269Z,7.07
2018-01-28T04:35:20.682Z,6.40
2018-01-28T04:37:48.216Z,7.37
2018-01-28T04:40:15.675Z,6.80
2018-01-28T04:42:43.121Z,6.33
2018-01-28T04:45:10.727Z,6.37
2018-01-28T04:47:38.169Z,6.20
2018-01-28T04:50:05.634Z,5.87
2018-01-28T04:52:33.152Z,6.40
2018-01-28T04:55:00.632Z,6.90
2018-01-28T04:57:28.100Z,6.63
2018-01-28T04:59:55.622Z,6.40
2018-01-28T05:02:23.090Z,6.73
2018-01-28T05:04:50.572Z,6.67
2018-01-28T05:07:18.042Z,7.13
2018-01-28T05:09:45.573Z,7.07
2018-01-28T05:12:13.057Z,6.60
2018-01-28T05:14:40.557Z,6.60
2018-01-28T05:17:08.027Z,6.20
2018-01-28T05:19:35.486Z,6.40
2018-01-28T05:22:02.941Z,6.00
2018-01-28T05:24:30.523Z,6.67
2018-01-28T05:26:58.026Z,6.80
2018-01-28T05:29:25.573Z,6.93
2018-01-28T05:31:53.053Z,6.53
2018-01-28T05:34:21.430Z,7.30
2018-01-28T05:36:48.988Z,6.80
2018-01-28T05:39:16.503Z,7.73
2018-01-28T05:41:44.949Z,7.13
2018-01-28T05:44:12.404Z,7.40
2018-01-28T05:46:39.871Z,7.43
2018-01-28T05:49:07.319Z,7.00
2018-01-28T05:51:35.598Z,7.20
2018-01-28T05:54:03.100Z,7.57
2018-01-28T05:56:30.615Z,7.23
2018-01-28T05:58:58.116Z,7.27
2018-01-28T06:01:25.669Z,7.47
2018-01-28T06:03:53.130Z,6.87
2018-01-28T06:06:20.772Z,6.70
2018-01-28T06:08:48.273Z,6.43
2018-01-28T06:11:15.747Z,7.00
2018-01-28T06:13:43.249Z,6.70
2018-01-28T06:16:10.783Z,7.00
2018-01-28T06:18:38.259Z,6.70
2018-01-28T06:21:05.703Z,5.97
2018-01-28T06:23:33.190Z,6.37
2018-01-28T06:26:00.897Z,7.07
2018-01-28T06:28:28.488Z,6.70
2018-01-28T06:30:55.980Z,6.07
2018-01-28T06:33:23.455Z,6.60
2018-01-28T06:35:51.062Z,6.10
2018-01-28T06:38:18.545Z,6.23
2018-01-28T06:40:46.126Z,5.77
2018-01-28T06:43:14.456Z,6.20
2018-01-28T06:45:41.917Z,6.13
2018-01-28T06:48:09.407Z,5.70
2018-01-28T06:50:36.981Z,5.80
2018-01-28T06:53:04.476Z,5.47
2018-01-28T06:55:31.993Z,6.07
2018-01-28T06:57:59.539Z,5.80
2018-01-28T07:00:27.077Z,5.57
2018-01-28T07:02:54.687Z,5.63
2018-01-28T07:05:22.282Z,6.17
2018-01-28T07:07:49.734Z,5.13
2018-01-28T07:10:17.276Z,5.53
2018-01-28T07:12:46.005Z,5.73
2018-01-28T07:15:14.460Z,5.40
2018-01-28T07:17:41.978Z,4.80
2018-01-28T07:20:09.510Z,4.30
2018-01-28T07:22:37.003Z,4.83
2018-01-28T07:25:04.493Z,4.77
2018-01-28T07:27:32.775Z,4.73
2018-01-28T07:30:01.114Z,5.00
2018-01-28T07:32:28.592Z,5.07
2018-01-28T07:34:59.086Z,4.73
2018-01-28T07:37:26.877Z,5.03
2018-01-28T07:39:54.389Z,4.40
2018-01-28T07:42:23.017Z,4.73
2018-01-28T07:44:51.566Z,4.67
2018-01-28T07:47:19.015Z,5.27
2018-01-28T07:49:46.495Z,4.30
2018-01-28T07:52:14.976Z,4.00
2018-01-28T07:54:42.526Z,4.60
2018-01-28T07:57:09.996Z,4.30
2018-01-28T07:59:37.522Z,4.50
2018-01-28T08:02:05.143Z,3.73
2018-01-28T08:04:32.654Z,4.00
2018-01-28T08:07:00.279Z,4.00
2018-01-28T08:09:28.260Z,3.97
2018-01-28T08:12:02.278Z,3.47
2018-01-28T08:14:30.827Z,4.20
2018-01-28T08:16:58.392Z,3.80
2018-01-28T08:19:26.471Z,3.60
2018-01-28T08:21:54.061Z,4.07
2018-01-28T08:24:21.719Z,4.00
2018-01-28T08:26:54.754Z,3.83
2018-01-28T08:29:22.246Z,3.90
2018-01-28T08:31:49.929Z,3.90
2018-01-28T08:34:17.442Z,4.07
2018-01-28T08:36:44.922Z,3.97
2018-01-28T08:39:12.504Z,3.80
2018-01-28T08:41:40.044Z,3.20
2018-01-28T08:44:07.556Z,3.87
2018-01-28T08:46:35.065Z,3.80
2018-01-28T08:49:02.648Z,4.43
2018-01-28T08:51:30.171Z,3.87
2018-01-28T08:54:02.942Z,3.80
2018-01-28T08:56:30.703Z,3.87
2018-01-28T08:58:58.255Z,3.50
2018-01-28T09:01:25.852Z,3.73
2018-01-28T09:03:53.359Z,3.67
2018-01-28T09:06:20.972Z,3.80
2018-01-28T09:08:48.616Z,3.70
2018-01-28T09:11:16.147Z,3.60
2018-01-28T09:13:43.617Z,3.87
2018-01-28T09:16:11.146Z,3.60
2018-01-28T09:18:38.619Z,3.83
2018-01-28T09:21:06.193Z,3.53
2018-01-28T09:23:33.701Z,3.47
2018-01-28T09:26:01.232Z,3.40
2018-01-28T09:28:28.959Z,3.57
2018-01-28T09:30:56.432Z,3.50
2018-01-28T09:33:23.963Z,4.00
2018-01-28T09:35:51.530Z,3.47
2018-01-28T09:38:19.054Z,3.40
2018-01-28T09:40:46.583Z,3.57
2018-01-28T09:43:14.313Z,3.77
2018-01-28T09:45:41.752Z,3.80
2018-01-28T09:48:09.258Z,3.60
2018-01-28T09:50:36.971Z,3.73
2018-01-28T09:53:04.553Z,3.80
2018-01-28T09:55:56.121Z,3.40
2018-01-28T09:58:23.773Z,4.07
2018-01-28T10:00:51.358Z,3.53
2018-01-28T10:03:18.938Z,3.80
2018-01-28T10:05:46.482Z,3.70
2018-01-28T10:08:14.082Z,3.43
2018-01-28T10:10:41.598Z,4.00
2018-01-28T10:13:09.551Z,3.73
2018-01-28T10:15:37.214Z,3.60
2018-01-28T10:18:04.842Z,4.30
2018-01-28T10:20:32.353Z,3.70
2018-01-28T10:23:00.061Z,4.00
2018-01-28T10:25:28.452Z,3.50
2018-01-28T10:27:56.143Z,3.33
2018-01-28T10:30:23.849Z,3.40
2018-01-28T10:32:51.385Z,3.60
2018-01-28T10:35:18.958Z,3.23
2018-01-28T10:37:47.304Z,2.80
2018-01-28T10:40:14.878Z,2.60
2018-01-28T10:42:42.661Z,2.60
2018-01-28T10:45:10.190Z,2.57
2018-01-28T10:47:37.666Z,2.80
2018-01-28T10:50:05.425Z,2.50
2018-01-28T10:52:32.946Z,2.53
2018-01-28T10:55:00.583Z,2.63
2018-01-28T10:57:28.117Z,2.60
2018-01-28T10:59:56.700Z,2.47
2018-01-28T11:02:24.430Z,3.17
2018-01-28T11:04:52.050Z,2.87
2018-01-28T11:07:19.649Z,2.97
2018-01-28T11:09:47.225Z,2.70
2018-01-28T11:12:14.984Z,2.57
2018-01-28T11:14:42.600Z,2.37
2018-01-28T11:17:10.120Z,2.90
2018-01-28T11:19:37.794Z,2.63
2018-01-28T11:22:05.647Z,2.20
2018-01-28T11:24:33.193Z,3.10
2018-01-28T11:27:00.839Z,2.70
2018-01-28T11:29:29.285Z,2.63
2018-01-28T11:31:56.787Z,2.60
2018-01-28T11:34:24.366Z,6.47
2018-01-28T11:36:51.846Z,2.70
2018-01-28T11:39:19.426Z,2.47
2018-01-28T11:41:46.948Z,2.40
2018-01-28T11:44:14.510Z,2.77
2018-01-28T11:46:42.327Z,2.63
2018-01-28T11:49:10.210Z,2.60
2018-01-28T11:51:37.834Z,2.70
2018-01-28T11:54:10.625Z,2.47
2018-01-28T11:56:38.359Z,2.63
2018-01-28T11:59:05.929Z,2.60
2018-01-28T12:01:33.553Z,2.80
2018-01-28T12:04:03.073Z,2.57
2018-01-28T12:06:30.694Z,3.03
2018-01-28T12:08:58.676Z,2.70
2018-01-28T12:11:26.258Z,2.70
2018-01-28T12:13:54.120Z,2.80
2018-01-28T12:16:21.611Z,2.60
2018-01-28T12:18:49.584Z,2.97
2018-01-28T12:21:18.369Z,2.67
2018-01-28T12:23:45.865Z,2.30
2018-01-28T12:26:13.461Z,2.40
2018-01-28T12:28:41.094Z,2.67
2018-01-28T12:31:08.718Z,2.30
2018-01-28T12:33:36.252Z,3.70
2018-01-28T12:36:03.848Z,2.97
2018-01-28T12:38:31.779Z,2.60
2018-01-28T12:40:59.524Z,2.60
2018-01-28T12:43:27.105Z,2.40
2018-01-28T12:45:54.554Z,2.50
2018-01-28T12:48:22.052Z,2.97
2018-01-28T12:50:50.417Z,2.37
2018-01-28T12:53:17.973Z,2.57
2018-01-28T12:55:45.550Z,2.50
2018-01-28T12:58:13.188Z,3.37
2018-01-28T13:00:40.748Z,2.67
2018-01-28T13:03:08.314Z,2.47
2018-01-28T13:05:35.852Z,2.60
2018-01-28T13:08:04.197Z,3.17
2018-01-28T13:10:31.716Z,2.90
2018-01-28T13:12:59.358Z,2.93
2018-01-28T13:15:36.663Z,2.80
2018-01-28T13:18:04.299Z,3.00
2018-01-28T13:20:31.825Z,3.13
2018-01-28T13:22:59.285Z,3.07
2018-01-28T13:25:27.311Z,2.90
2018-01-28T13:27:55.228Z,3.00
2018-01-28T13:30:22.899Z,2.80
2018-01-28T13:32:50.473Z,3.20
2018-01-28T13:35:18.052Z,2.70
2018-01-28T13:37:45.577Z,2.93
2018-01-28T13:40:13.234Z,2.93
2018-01-28T13:42:40.854Z,2.70
2018-01-28T13:45:08.487Z,2.70
2018-01-28T13:47:36.032Z,2.70
2018-01-28T13:50:03.952Z,2.80
2018-01-28T13:52:31.571Z,3.00
2018-01-28T13:54:59.179Z,2.70
2018-01-28T13:57:26.756Z,3.03
2018-01-28T13:59:54.246Z,3.00
2018-01-28T14:02:21.882Z,2.83
2018-01-28T14:04:49.497Z,2.50
2018-01-28T14:07:17.157Z,2.80
2018-01-28T14:09:44.618Z,2.87
2018-01-28T14:12:12.119Z,3.17
2018-01-28T14:14:49.187Z,3.03
2018-01-28T14:17:17.042Z,2.87
2018-01-28T14:19:44.536Z,2.87
2018-01-28T14:22:12.209Z,3.00
2018-01-28T14:24:39.777Z,2.80
2018-01-28T14:27:07.387Z,2.60
2018-01-28T14:29:34.885Z,3.00
2018-01-28T14:32:02.430Z,2.80
2018-01-28T14:34:30.050Z,2.40
2018-01-28T14:36:57.591Z,2.50
2018-01-28T14:39:25.155Z,2.47
2018-01-28T14:41:52.673Z,2.63
2018-01-28T14:44:20.203Z,2.77
2018-01-28T14:46:47.808Z,2.83
2018-01-28T14:49:15.384Z,2.93
2018-01-28T14:51:43.040Z,2.70
2018-01-28T14:54:10.624Z,2.70
2018-01-28T14:56:38.231Z,3.43
2018-01-28T14:59:05.816Z,3.00
2018-01-28T15:01:33.388Z,2.90
2018-01-28T15:04:00.851Z,3.43
2018-01-28T15:06:28.585Z,2.60
2018-01-28T15:08:56.117Z,3.07
2018-01-28T15:11:23.709Z,2.90
2018-01-28T15:13:51.202Z,2.70
2018-01-28T15:16:18.718Z,2.70
2018-01-28T15:18:46.296Z,3.10
2018-01-28T15:21:13.921Z,2.87
2018-01-28T15:23:41.483Z,3.00
2018-01-28T15:26:09.297Z,3.23
2018-01-28T15:28:36.873Z,3.10
2018-01-28T15:31:04.430Z,2.80
2018-01-28T15:33:31.932Z,2.70
2018-01-28T15:35:59.380Z,3.07
2018-01-28T15:38:26.900Z,2.80
2018-01-28T15:40:54.647Z,2.53
2018-01-28T15:43:22.173Z,2.70
2018-01-28T15:45:49.703Z,2.70
2018-01-28T15:48:17.320Z,3.10
2018-01-28T15:50:44.835Z,2.63
2018-01-28T15:53:12.346Z,2.80
2018-01-28T15:55:39.862Z,2.90
2018-01-28T15:58:07.332Z,3.03
2018-01-28T16:00:34.909Z,2.80
2018-01-28T16:03:02.564Z,3.27
2018-01-28T16:05:30.199Z,2.60
2018-01-28T16:07:57.770Z,2.90
2018-01-28T16:10:25.306Z,3.20
2018-01-28T16:12:52.794Z,3.10
2018-01-28T16:15:20.335Z,2.90
2018-01-28T16:17:48.009Z,3.00
2018-01-28T16:20:15.494Z,3.27
2018-01-28T16:22:43.175Z,2.87
2018-01-28T16:25:10.803Z,2.90
2018-01-28T16:27:38.336Z,3.03
2018-01-28T16:30:05.837Z,3.10
2018-01-28T16:32:33.514Z,3.90
2018-01-28T16:35:01.000Z,3.20
2018-01-28T16:37:28.584Z,3.20
2018-01-28T16:39:56.094Z,3.37
2018-01-28T16:42:23.657Z,3.70
2018-01-28T16:44:51.214Z,3.27
2018-01-28T16:47:18.790Z,2.93
2018-01-28T16:49:46.278Z,3.07
2018-01-28T16:52:13.827Z,3.00
2018-01-28T16:54:41.417Z,3.10
2018-01-28T16:57:08.983Z,3.40
2018-01-28T16:59:36.584Z,3.07
2018-01-28T17:02:05.074Z,3.20
2018-01-28T17:04:32.666Z,3.60
2018-01-28T17:07:00.135Z,3.00
2018-01-28T17:09:27.698Z,3.57
2018-01-28T17:11:55.279Z,3.30
2018-01-28T17:14:22.926Z,3.63
2018-01-28T17:16:50.812Z,3.30
2018-01-28T17:19:18.403Z,3.00
2018-01-28T17:21:45.941Z,3.40
2018-01-28T17:24:13.576Z,3.50
2018-01-28T17:26:41.177Z,3.50
2018-01-28T17:29:08.766Z,3.40
2018-01-28T17:31:36.387Z,3.20
2018-01-28T17:34:04.021Z,2.87
2018-01-28T17:36:31.747Z,3.10
2018-01-28T17:38:59.348Z,3.50
2018-01-28T17:41:26.887Z,3.20
2018-01-28T17:43:54.427Z,3.30
2018-01-28T17:46:22.102Z,3.07
2018-01-28T17:48:49.761Z,3.40
2018-01-28T17:51:17.454Z,3.60
2018-01-28T17:53:44.983Z,3.27
2018-01-28T17:56:12.536Z,3.23
2018-01-28T17:58:40.934Z,3.47
2018-01-28T18:01:08.489Z,3.93
2018-01-28T18:03:36.101Z,3.30
2018-01-28T18:06:03.643Z,3.60
2018-01-28T18:08:31.687Z,3.73
2018-01-28T18:10:59.457Z,3.30
2018-01-28T18:13:27.067Z,2.93
2018-01-28T18:15:54.743Z,3.30
2018-01-28T18:18:22.264Z,3.53
2018-01-28T18:20:49.742Z,3.50
2018-01-28T18:23:17.342Z,2.90
2018-01-28T18:25:44.987Z,3.30
2018-01-28T18:28:12.497Z,3.50
2018-01-28T18:30:40.047Z,3.20
2018-01-28T18:33:07.597Z,3.60
2018-01-28T18:35:35.119Z,3.27
2018-01-28T18:38:02.659Z,3.77
2018-01-28T18:40:30.198Z,3.37
2018-01-28T18:42:57.673Z,3.73
2018-01-28T18:45:25.234Z,3.30
2018-01-28T18:47:52.736Z,3.70
2018-01-28T18:50:20.237Z,3.57
2018-01-28T18:52:48.770Z,3.60
2018-01-28T18:55:16.354Z,3.40
2018-01-28T18:57:44.052Z,3.47
2018-01-28T19:00:11.628Z,3.23
2018-01-28T19:02:39.183Z,3.20
2018-01-28T19:05:06.798Z,3.20
2018-01-28T19:07:34.325Z,3.50
2018-01-28T19:10:01.983Z,3.80
2018-01-28T19:12:29.481Z,3.80
2018-01-28T19:14:57.969Z,3.07
2018-01-28T19:17:25.517Z,3.43
2018-01-28T19:19:53.051Z,3.40
2018-01-28T19:22:20.616Z,3.37
2018-01-28T19:24:48.244Z,3.43
2018-01-28T19:27:15.841Z,3.40
2018-01-28T19:29:43.358Z,3.20
2018-01-28T19:32:10.887Z,3.10
2018-01-28T19:34:38.594Z,4.20
2018-01-28T19:37:06.147Z,4.10
2018-01-28T19:39:33.738Z,4.27
2018-01-28T19:42:01.620Z,3.67
2018-01-28T19:44:30.069Z,3.67
2018-01-28T19:47:00.040Z,3.80
2018-01-28T19:49:27.866Z,3.50
2018-01-28T19:51:55.609Z,4.10
2018-01-28T19:54:24.550Z,3.50
2018-01-28T19:56:52.180Z,3.30
2018-01-28T19:59:19.988Z,2.83
2018-01-28T20:01:48.408Z,3.77
2018-01-28T20:04:16.058Z,3.00
2018-01-28T20:06:44.820Z,3.30
2018-01-28T20:09:12.605Z,3.23
2018-01-28T20:11:40.122Z,3.13
2018-01-28T20:14:07.801Z,2.97
2018-01-28T20:16:35.715Z,3.47
2018-01-28T20:19:03.266Z,3.43
2018-01-28T20:21:30.788Z,2.93
2018-01-28T20:23:58.379Z,3.20
2018-01-28T20:26:25.933Z,3.10
2018-01-28T20:28:53.595Z,3.10
2018-01-28T20:31:21.534Z,2.80
2018-01-28T20:33:49.109Z,3.13
2018-01-28T20:36:16.680Z,3.30
2018-01-28T20:38:44.983Z,2.70
2018-01-28T20:41:12.617Z,3.20
2018-01-28T20:43:40.770Z,2.70
2018-01-28T20:46:27.577Z,3.10
2018-01-28T20:48:56.161Z,3.00
2018-01-28T20:51:24.092Z,3.20
2018-01-28T20:53:51.639Z,3.00
2018-01-28T20:56:20.018Z,3.30
2018-01-28T20:58:47.942Z,2.67
2018-01-28T21:01:15.420Z,3.07
2018-01-28T21:03:43.238Z,3.13
2018-01-28T21:06:10.738Z,3.10
2018-01-28T21:08:38.306Z,2.90
2018-01-28T21:11:05.880Z,3.23
2018-01-28T21:13:33.494Z,3.10
2018-01-28T21:16:01.264Z,2.93
2018-01-28T21:18:28.784Z,2.97
2018-01-28T21:20:56.342Z,3.00
2018-01-28T21:23:24.189Z,2.80
2018-01-28T21:25:51.841Z,3.10
2018-01-28T21:28:19.713Z,3.23
2018-01-28T21:30:47.303Z,2.97
2018-01-28T21:33:14.932Z,3.20
2018-01-28T21:35:47.580Z,3.10
2018-01-28T21:38:15.151Z,3.30
2018-01-28T21:40:42.741Z,3.43
2018-01-28T21:43:10.275Z,3.23
2018-01-28T21:45:37.782Z,3.20
2018-01-28T21:48:05.333Z,3.20
2018-01-28T21:50:32.870Z,3.27
2018-01-28T21:53:00.360Z,3.33
2018-01-28T21:55:27.930Z,3.10
2018-01-28T21:57:55.714Z,3.50
2018-01-28T22:00:23.210Z,3.60
2018-01-28T22:02:50.912Z,3.40
2018-01-28T22:05:18.455Z,3.30
2018-01-28T22:07:45.954Z,3.40
2018-01-28T22:10:13.508Z,3.30
2018-01-28T22:12:41.384Z,3.60
2018-01-28T22:15:08.902Z,3.03
2018-01-28T22:17:36.421Z,3.50
2018-01-28T22:20:03.929Z,3.60
2018-01-28T22:22:31.522Z,3.80
2018-01-28T22:24:59.063Z,3.60
2018-01-28T22:27:26.671Z,3.57
2018-01-28T22:29:55.144Z,3.60
2018-01-28T22:32:22.672Z,3.63
2018-01-28T22:34:50.286Z,3.07
2018-01-28T22:37:17.937Z,3.40
2018-01-28T22:39:45.502Z,3.43
2018-01-28T22:42:13.042Z,3.30
2018-01-28T22:44:40.567Z,3.60
2018-01-28T22:47:08.096Z,3.47
2018-01-28T22:49:35.587Z,3.80
2018-01-28T22:52:03.217Z,3.60
2018-01-28T22:54:30.712Z,3.37
2018-01-28T22:56:58.201Z,3.43
2018-01-28T22:59:25.687Z,3.50
2018-01-28T23:01:53.241Z,3.10
2018-01-28T23:04:20.776Z,3.73
2018-01-28T23:06:48.307Z,3.30
2018-01-28T23:09:15.820Z,3.47
2018-01-28T23:11:43.469Z,3.40
2018-01-28T23:14:10.946Z,3.60
2018-01-28T23:16:38.463Z,3.37
2018-01-28T23:19:05.931Z,3.50
2018-01-28T23:21:33.487Z,3.13
2018-01-28T23:24:01.102Z,3.10
2018-01-28T23:26:28.571Z,3.60
2018-01-28T23:28:56.137Z,3.17
2018-01-28T23:31:23.652Z,3.17
2018-01-28T23:33:51.433Z,3.43
2018-01-28T23:36:19.009Z,3.60
2018-01-28T23:38:46.547Z,3.70
2018-01-28T23:41:14.073Z,3.33
2018-01-28T23:43:41.541Z,3.57
2018-01-28T23:46:09.082Z,3.40
2018-01-28T23:48:36.545Z,3.37
2018-01-28T23:51:04.056Z,3.50
2018-01-28T23:53:31.550Z,3.30
2018-01-28T23:55:59.040Z,3.30
2018-01-28T23:58:26.541Z,3.50
